createdAt,value
2018-03-02T00:01:17.492Z,5.07
2018-03-02T00:03:44.955Z,5.75
2018-03-02T00:06:13.194Z,6.47
2018-03-02T00:08:41.349Z,3.87
2018-03-02T00:11:09.322Z,4.53
2018-03-02T00:13:37.187Z,3.05
2018-03-02T00:16:05.051Z,4.00
2018-03-02T00:18:33.023Z,5.03
2018-03-02T00:21:01.709Z,3.58
2018-03-02T00:23:29.581Z,7.95
2018-03-02T00:25:57.444Z,4.43
2018-03-02T00:28:24.921Z,2.65
2018-03-02T00:30:52.381Z,6.15
2018-03-02T00:33:19.872Z,7.28
2018-03-02T00:35:47.343Z,4.07
2018-03-02T00:38:15.577Z,6.22
2018-03-02T00:40:43.051Z,6.50
2018-03-02T00:43:10.521Z,4.72
2018-03-02T00:45:38.003Z,3.45
2018-03-02T00:48:05.473Z,4.93
2018-03-02T00:50:32.956Z,6.00
2018-03-02T00:53:00.428Z,4.18
2018-03-02T00:55:27.905Z,4.47
2018-03-02T00:57:55.370Z,4.40
2018-03-02T01:00:23.913Z,4.37
2018-03-02T01:02:51.376Z,5.70
2018-03-02T01:05:18.849Z,6.25
2018-03-02T01:07:46.316Z,10.57
2018-03-02T01:10:13.785Z,7.18
2018-03-02T01:12:41.260Z,6.87
2018-03-02T01:15:09.506Z,4.15
2018-03-02T01:17:36.988Z,4.53
2018-03-02T01:20:05.226Z,6.07
2018-03-02T01:22:32.707Z,8.52
2018-03-02T01:25:00.176Z,8.02
2018-03-02T01:27:28.403Z,4.75
2018-03-02T01:29:55.900Z,5.03
2018-03-02T01:32:23.369Z,4.18
2018-03-02T01:34:51.607Z,10.05
2018-03-02T01:37:19.074Z,6.03
2018-03-02T01:39:46.570Z,4.37
2018-03-02T01:42:14.799Z,9.18
2018-03-02T01:44:42.276Z,4.75
2018-03-02T01:47:09.740Z,7.78
2018-03-02T01:49:37.215Z,5.72
2018-03-02T01:52:05.459Z,10.40
2018-03-02T01:54:32.919Z,7.80
2018-03-02T01:57:00.392Z,5.87
2018-03-02T01:59:29.126Z,5.03
2018-03-02T02:01:57.004Z,4.82
2018-03-02T02:04:24.627Z,6.07
2018-03-02T02:06:53.246Z,6.03
2018-03-02T02:09:21.110Z,7.18
2018-03-02T02:11:49.090Z,6.87
2018-03-02T02:14:16.947Z,3.58
2018-03-02T02:16:44.610Z,8.27
2018-03-02T02:19:12.475Z,6.30
2018-03-02T02:21:40.447Z,7.65
2018-03-02T02:24:12.734Z,5.28
2018-03-02T02:26:40.691Z,6.05
2018-03-02T02:29:08.555Z,5.55
2018-03-02T02:31:36.419Z,8.38
2018-03-02T02:34:04.291Z,7.47
2018-03-02T02:36:32.156Z,7.53
2018-03-02T02:39:00.028Z,5.22
2018-03-02T02:41:27.900Z,10.10
2018-03-02T02:43:55.583Z,5.82
2018-03-02T02:46:23.633Z,6.07
2018-03-02T02:48:51.491Z,7.45
2018-03-02T02:51:19.468Z,6.60
2018-03-02T02:53:47.542Z,8.48
2018-03-02T02:56:15.316Z,6.20
2018-03-02T02:58:43.171Z,5.28
2018-03-02T03:01:11.136Z,7.53
2018-03-02T03:03:39.007Z,6.57
2018-03-02T03:06:06.871Z,7.72
2018-03-02T03:08:34.739Z,4.40
2018-03-02T03:11:02.602Z,9.55
2018-03-02T03:13:30.267Z,6.47
2018-03-02T03:15:57.945Z,8.30
2018-03-02T03:18:26.614Z,9.45
2018-03-02T03:20:54.484Z,8.32
2018-03-02T03:23:22.459Z,7.03
2018-03-02T03:25:50.121Z,7.00
2018-03-02T03:28:17.990Z,7.53
2018-03-02T03:30:45.856Z,8.43
2018-03-02T03:33:13.719Z,5.37
2018-03-02T03:35:41.792Z,9.00
2018-03-02T03:38:09.469Z,12.10
2018-03-02T03:40:37.326Z,9.13
2018-03-02T03:43:05.301Z,8.00
2018-03-02T03:45:33.159Z,12.82
2018-03-02T03:48:01.127Z,7.80
2018-03-02T03:50:29.095Z,4.50
2018-03-02T03:52:56.967Z,6.53
2018-03-02T03:55:24.751Z,9.57
2018-03-02T03:57:52.699Z,7.32
2018-03-02T04:00:20.468Z,11.12
2018-03-02T04:02:48.335Z,6.40
2018-03-02T04:05:16.199Z,5.90
2018-03-02T04:07:43.962Z,10.30
2018-03-02T04:10:11.838Z,7.03
2018-03-02T04:12:44.834Z,7.85
2018-03-02T04:15:12.788Z,9.15
2018-03-02T04:17:40.458Z,7.28
2018-03-02T04:20:08.421Z,6.62
2018-03-02T04:22:36.286Z,8.23
2018-03-02T04:25:03.963Z,8.30
2018-03-02T04:27:31.826Z,5.43
2018-03-02T04:29:59.694Z,9.50
2018-03-02T04:32:27.559Z,7.72
2018-03-02T04:34:55.422Z,6.70
2018-03-02T04:37:23.192Z,7.00
2018-03-02T04:39:50.955Z,6.95
2018-03-02T04:42:18.823Z,10.38
2018-03-02T04:44:46.994Z,9.60
2018-03-02T04:47:14.755Z,10.85
2018-03-02T04:49:42.728Z,9.82
2018-03-02T04:52:10.722Z,10.68
2018-03-02T04:54:38.667Z,8.85
2018-03-02T04:57:06.547Z,11.35
2018-03-02T04:59:34.019Z,8.57
2018-03-02T05:02:01.479Z,9.85
2018-03-02T05:04:28.971Z,6.50
2018-03-02T05:06:57.203Z,8.05
2018-03-02T05:09:24.679Z,8.40
2018-03-02T05:12:12.123Z,7.55
2018-03-02T05:14:39.622Z,8.43
2018-03-02T05:17:07.489Z,12.73
2018-03-02T05:19:34.967Z,10.93
2018-03-02T05:22:02.438Z,9.95
2018-03-02T05:24:29.914Z,12.15
2018-03-02T05:26:57.386Z,9.73
2018-03-02T05:29:24.850Z,6.70
2018-03-02T05:31:53.081Z,8.95
2018-03-02T05:34:20.555Z,8.05
2018-03-02T05:39:44.123Z,9.05
2018-03-02T05:42:11.583Z,10.15
2018-03-02T05:44:39.819Z,7.87
2018-03-02T05:47:07.288Z,10.45
2018-03-02T05:49:34.779Z,8.18
2018-03-02T05:52:02.240Z,8.10
2018-03-02T05:54:29.713Z,6.78
2018-03-02T06:00:03.277Z,8.68
2018-03-02T06:02:30.771Z,8.00
2018-03-02T06:04:58.238Z,8.30
2018-03-02T06:07:25.699Z,9.00
2018-03-02T06:09:53.167Z,7.00
2018-03-02T06:15:13.436Z,9.30
2018-03-02T06:17:40.884Z,6.87
2018-03-02T06:20:11.852Z,13.75
2018-03-02T06:22:39.337Z,7.05
2018-03-02T06:25:06.827Z,9.55
2018-03-02T06:27:34.299Z,10.65
2018-03-02T06:30:01.765Z,6.18
2018-03-02T06:32:29.309Z,12.77
2018-03-02T06:34:56.783Z,7.15
2018-03-02T06:37:24.259Z,7.75
2018-03-02T06:39:51.728Z,7.87
2018-03-02T06:42:19.214Z,8.32
2018-03-02T06:44:46.678Z,7.95
2018-03-02T06:47:14.946Z,6.97
2018-03-02T06:49:42.395Z,13.10
2018-03-02T06:52:09.869Z,8.00
2018-03-02T06:54:38.103Z,13.30
2018-03-02T06:57:06.361Z,8.88
2018-03-02T06:59:33.823Z,5.82
2018-03-02T07:02:01.300Z,9.63
2018-03-02T07:04:28.774Z,10.23
2018-03-02T07:06:56.252Z,10.13
2018-03-02T07:09:24.479Z,13.10
2018-03-02T07:11:51.966Z,16.35
2018-03-02T07:14:19.432Z,8.45
2018-03-02T07:16:46.898Z,13.77
2018-03-02T07:19:15.142Z,13.57
2018-03-02T07:21:42.620Z,10.77
2018-03-02T07:24:10.093Z,13.68
2018-03-02T07:26:38.346Z,11.23
2018-03-02T07:29:05.813Z,12.77
2018-03-02T07:31:33.296Z,11.77
2018-03-02T07:34:01.554Z,9.27
2018-03-02T07:36:29.032Z,13.55
2018-03-02T07:38:57.264Z,8.70
2018-03-02T07:41:24.736Z,10.75
2018-03-02T07:43:52.209Z,12.45
2018-03-02T07:46:19.700Z,10.82
2018-03-02T07:48:47.165Z,9.63
2018-03-02T07:51:14.629Z,12.45
2018-03-02T07:53:42.126Z,11.30
2018-03-02T07:56:09.608Z,13.60
2018-03-02T07:58:37.854Z,9.45
2018-03-02T08:01:05.315Z,10.68
2018-03-02T08:03:32.786Z,13.00
2018-03-02T08:06:00.276Z,12.77
2018-03-02T08:08:27.759Z,16.50
2018-03-02T08:10:55.217Z,10.90
2018-03-02T08:13:22.716Z,13.45
2018-03-02T08:15:50.189Z,11.77
2018-03-02T08:18:18.426Z,9.95
2018-03-02T08:20:45.898Z,14.05
2018-03-02T08:23:13.385Z,13.02
2018-03-02T08:25:41.614Z,16.05
2018-03-02T08:28:09.100Z,12.65
2018-03-02T08:30:36.578Z,12.93
2018-03-02T08:33:04.075Z,12.82
2018-03-02T08:35:31.557Z,10.07
2018-03-02T08:37:59.042Z,11.82
2018-03-02T08:40:26.510Z,14.48
2018-03-02T08:42:54.792Z,13.80
2018-03-02T08:45:22.236Z,14.23
2018-03-02T08:47:49.775Z,10.30
2018-03-02T08:50:17.249Z,14.32
2018-03-02T08:52:44.728Z,9.93
2018-03-02T08:55:12.963Z,12.77
2018-03-02T08:57:40.443Z,16.87
2018-03-02T09:00:07.937Z,12.02
2018-03-02T09:02:35.431Z,15.82
2018-03-02T09:05:02.904Z,10.02
2018-03-02T09:07:30.390Z,15.70
2018-03-02T09:09:58.663Z,10.85
2018-03-02T09:12:26.917Z,11.55
2018-03-02T09:14:54.399Z,11.82
2018-03-02T09:17:22.643Z,9.27
2018-03-02T09:19:50.108Z,7.70
2018-03-02T09:22:17.585Z,10.57
2018-03-02T09:24:45.819Z,12.77
2018-03-02T09:27:13.306Z,10.90
2018-03-02T09:29:40.776Z,11.57
2018-03-02T09:32:09.019Z,14.20
2018-03-02T09:34:36.518Z,10.45
2018-03-02T09:37:04.779Z,14.55
2018-03-02T09:39:32.271Z,9.98
2018-03-02T09:41:59.753Z,10.55
2018-03-02T09:44:27.240Z,14.25
2018-03-02T09:46:54.728Z,11.10
2018-03-02T09:49:22.994Z,13.93
2018-03-02T09:51:50.465Z,10.80
2018-03-02T09:54:18.713Z,11.15
2018-03-02T09:56:46.177Z,11.40
2018-03-02T09:59:13.657Z,8.88
2018-03-02T10:01:41.939Z,15.50
2018-03-02T10:04:09.413Z,10.32
2018-03-02T10:06:36.902Z,11.55
2018-03-02T10:09:04.387Z,12.60
2018-03-02T10:11:31.931Z,13.62
2018-03-02T10:13:59.364Z,14.80
2018-03-02T10:16:26.842Z,13.55
2018-03-02T10:18:54.324Z,16.42
2018-03-02T10:21:21.809Z,12.23
2018-03-02T10:23:50.042Z,11.88
2018-03-02T10:26:17.524Z,11.95
2018-03-02T10:28:45.003Z,11.00
2018-03-02T10:31:12.492Z,14.95
2018-03-02T10:33:39.964Z,14.65
2018-03-02T10:36:07.436Z,14.23
2018-03-02T10:38:34.911Z,15.02
2018-03-02T10:41:02.395Z,14.90
2018-03-02T10:43:29.868Z,15.57
2018-03-02T10:45:57.347Z,13.40
2018-03-02T10:48:24.818Z,15.80
2018-03-02T10:50:52.323Z,14.05
2018-03-02T10:53:19.799Z,12.50
2018-03-02T10:55:47.284Z,11.63
2018-03-02T10:58:14.759Z,14.45
2018-03-02T11:00:47.986Z,13.13
2018-03-02T11:03:21.856Z,14.70
2018-03-02T11:05:50.110Z,15.80
2018-03-02T11:08:17.586Z,10.77
2018-03-02T11:10:45.058Z,10.32
2018-03-02T11:13:12.549Z,12.20
2018-03-02T11:15:40.018Z,15.98
2018-03-02T11:18:07.491Z,13.15
2018-03-02T11:20:34.968Z,12.43
2018-03-02T11:23:02.444Z,9.50
2018-03-02T11:25:29.953Z,17.05
2018-03-02T11:27:57.429Z,9.50
2018-03-02T11:30:24.909Z,12.43
2018-03-02T11:32:52.392Z,12.13
2018-03-02T11:35:19.851Z,16.62
2018-03-02T11:37:47.343Z,13.18
2018-03-02T11:40:14.807Z,13.25
2018-03-02T11:42:42.298Z,11.12
2018-03-02T11:45:09.786Z,14.35
2018-03-02T11:47:37.279Z,10.75
2018-03-02T11:50:04.767Z,10.95
2018-03-02T11:52:32.246Z,11.35
2018-03-02T11:54:59.747Z,13.27
2018-03-02T11:57:27.249Z,11.40
2018-03-02T11:59:54.746Z,13.93
2018-03-02T12:02:22.233Z,11.27
2018-03-02T12:04:49.730Z,13.05
2018-03-02T12:07:17.210Z,11.10
2018-03-02T12:09:45.484Z,8.60
2018-03-02T12:12:12.973Z,12.95
2018-03-02T12:14:40.463Z,8.23
2018-03-02T12:17:07.941Z,10.32
2018-03-02T12:19:35.419Z,6.45
2018-03-02T12:22:02.895Z,11.05
2018-03-02T12:24:31.148Z,8.63
2018-03-02T12:26:59.398Z,10.45
2018-03-02T12:29:26.873Z,10.75
2018-03-02T12:31:54.340Z,10.70
2018-03-02T12:34:21.818Z,8.55
2018-03-02T12:36:50.056Z,12.25
2018-03-02T12:39:17.537Z,11.57
2018-03-02T12:41:45.000Z,12.68
2018-03-02T12:46:45.191Z,8.70
2018-03-02T12:49:12.720Z,11.40
2018-03-02T12:51:40.158Z,8.85
2018-03-02T12:54:08.417Z,11.48
2018-03-02T12:56:35.902Z,13.18
2018-03-02T12:59:04.166Z,18.58
2018-03-02T13:01:31.640Z,11.88
2018-03-02T13:03:59.906Z,12.55
2018-03-02T13:06:28.154Z,14.32
2018-03-02T13:08:55.623Z,13.32
2018-03-02T13:11:23.098Z,12.65
2018-03-02T13:13:50.594Z,10.57
2018-03-02T13:16:18.078Z,13.95
2018-03-02T13:18:45.574Z,8.82
2018-03-02T13:21:13.075Z,11.43
2018-03-02T13:23:49.119Z,10.32
2018-03-02T13:26:28.366Z,8.60
2018-03-02T13:28:55.851Z,8.93
2018-03-02T13:31:23.345Z,16.55
2018-03-02T13:34:02.719Z,13.93
2018-03-02T13:36:30.206Z,11.32
2018-03-02T13:38:57.687Z,12.40
2018-03-02T13:41:37.076Z,11.98
2018-03-02T13:44:04.546Z,8.65
2018-03-02T13:46:32.032Z,12.77
2018-03-02T13:49:11.462Z,12.52
2018-03-02T13:51:38.942Z,10.65
2018-03-02T13:54:06.415Z,9.10
2018-03-02T13:56:46.592Z,10.82
2018-03-02T13:59:14.072Z,9.48
2018-03-02T14:01:41.542Z,9.25
2018-03-02T14:04:20.935Z,11.73
2018-03-02T14:06:48.421Z,11.40
2018-03-02T14:09:16.674Z,11.40
2018-03-02T14:11:44.177Z,10.85
2018-03-02T14:14:12.432Z,12.23
2018-03-02T14:16:39.930Z,9.85
2018-03-02T14:19:07.401Z,12.15
2018-03-02T14:21:34.873Z,13.93
2018-03-02T14:24:03.127Z,9.77
2018-03-02T14:26:30.610Z,10.18
2018-03-02T14:28:58.108Z,12.37
2018-03-02T14:31:25.626Z,12.25
2018-03-02T14:33:53.889Z,9.63
2018-03-02T14:36:22.151Z,11.20
2018-03-02T14:38:49.637Z,10.85
2018-03-02T14:41:17.900Z,8.80
2018-03-02T14:43:45.381Z,11.25
2018-03-02T14:46:12.864Z,11.40
2018-03-02T14:48:40.335Z,8.02
2018-03-02T14:51:07.823Z,12.77
2018-03-02T14:53:35.317Z,10.52
2018-03-02T14:56:02.796Z,10.48
2018-03-02T14:58:30.293Z,12.10
2018-03-02T15:00:57.770Z,9.70
2018-03-02T15:03:25.263Z,13.60
2018-03-02T15:05:52.749Z,13.25
2018-03-02T15:08:20.243Z,12.90
2018-03-02T15:10:48.537Z,10.35
2018-03-02T15:13:15.999Z,14.30
2018-03-02T15:15:43.462Z,11.23
2018-03-02T15:18:10.942Z,13.82
2018-03-02T15:20:38.480Z,12.50
2018-03-02T15:23:05.963Z,11.40
2018-03-02T15:25:33.575Z,15.20
2018-03-02T15:28:01.867Z,12.93
2018-03-02T15:30:29.368Z,10.90
2018-03-02T15:32:56.853Z,12.98
2018-03-02T15:35:24.342Z,15.45
2018-03-02T15:37:52.604Z,14.65
2018-03-02T15:40:20.083Z,15.52
2018-03-02T15:42:47.616Z,12.50
2018-03-02T15:45:15.060Z,17.52
2018-03-02T15:47:42.544Z,18.10
2018-03-02T15:50:10.780Z,12.27
2018-03-02T15:52:38.242Z,15.27
2018-03-02T15:55:05.725Z,13.48
2018-03-02T15:57:33.625Z,12.45
2018-03-02T16:00:02.068Z,14.23
2018-03-02T16:02:30.530Z,15.93
2018-03-02T16:04:58.046Z,16.20
2018-03-02T16:07:25.515Z,17.12
2018-03-02T16:09:52.999Z,12.65
2018-03-02T16:12:20.465Z,16.95
2018-03-02T16:14:47.975Z,11.90
2018-03-02T16:17:15.449Z,15.38
2018-03-02T16:19:42.938Z,16.85
2018-03-02T16:22:10.728Z,12.30
2018-03-02T16:24:38.229Z,11.50
2018-03-02T16:27:05.709Z,11.55
2018-03-02T16:29:33.193Z,15.15
2018-03-02T16:32:00.675Z,11.85
2018-03-02T16:34:28.915Z,12.30
2018-03-02T16:36:56.394Z,13.05
2018-03-02T16:39:23.864Z,11.65
2018-03-02T16:41:52.128Z,14.10
2018-03-02T16:44:19.607Z,11.27
2018-03-02T16:46:47.860Z,13.00
2018-03-02T16:49:15.331Z,17.05
2018-03-02T16:51:43.594Z,13.27
2018-03-02T16:54:11.071Z,14.60
2018-03-02T16:56:38.556Z,18.52
2018-03-02T16:59:06.040Z,16.40
2018-03-02T17:01:33.526Z,16.33
2018-03-02T17:04:01.002Z,24.40
2018-03-02T17:06:29.248Z,16.23
2018-03-02T17:08:56.736Z,16.45
2018-03-02T17:11:24.992Z,22.98
2018-03-02T17:13:52.470Z,26.90
2018-03-02T17:19:18.570Z,15.93
2018-03-02T17:21:46.049Z,12.88
2018-03-02T17:24:13.541Z,15.52
2018-03-02T17:26:41.043Z,18.92
2018-03-02T17:29:09.695Z,15.43
2018-03-02T17:31:37.178Z,15.13
2018-03-02T17:34:04.733Z,11.12
2018-03-02T17:36:32.191Z,12.80
2018-03-02T17:38:59.651Z,13.40
2018-03-02T17:41:27.126Z,12.88
2018-03-02T17:43:54.596Z,13.23
2018-03-02T17:46:22.063Z,15.25
2018-03-02T17:48:49.523Z,10.27
2018-03-02T17:51:17.783Z,8.65
2018-03-02T17:53:45.242Z,12.93
2018-03-02T17:56:12.716Z,13.25
2018-03-02T17:58:40.800Z,10.75
2018-03-02T18:01:09.058Z,14.40
2018-03-02T18:03:36.525Z,15.30
2018-03-02T18:06:04.009Z,15.18
2018-03-02T18:08:31.469Z,14.35
2018-03-02T18:10:58.925Z,11.98
2018-03-02T18:13:26.388Z,14.90
2018-03-02T18:15:53.866Z,12.20
2018-03-02T18:18:21.330Z,11.52
2018-03-02T18:20:48.796Z,18.25
2018-03-02T18:23:16.320Z,12.05
2018-03-02T18:25:43.823Z,10.82
2018-03-02T18:28:11.309Z,8.23
2018-03-02T18:30:46.353Z,9.43
2018-03-02T18:33:14.580Z,18.40
2018-03-02T18:35:42.045Z,11.43
2018-03-02T18:38:09.522Z,12.63
2018-03-02T18:40:45.598Z,7.97
2018-03-02T18:43:13.069Z,10.25
2018-03-02T18:45:41.312Z,9.82
2018-03-02T18:48:08.788Z,8.25
2018-03-02T18:50:37.023Z,9.65
2018-03-02T18:53:04.518Z,8.13
2018-03-02T18:55:31.981Z,8.65
2018-03-02T18:57:59.448Z,9.52
2018-03-02T19:00:27.697Z,8.27
2018-03-02T19:02:55.159Z,6.53
2018-03-02T19:05:22.643Z,10.45
2018-03-02T19:07:51.678Z,25.95
2018-03-02T19:10:19.161Z,24.10
2018-03-02T19:12:46.630Z,20.27
2018-03-02T19:15:14.086Z,21.55
2018-03-02T19:17:41.550Z,12.13
2018-03-02T19:20:09.020Z,12.02
2018-03-02T19:22:37.265Z,6.55
2018-03-02T19:25:04.730Z,10.23
2018-03-02T19:27:32.193Z,10.23
2018-03-02T19:29:59.661Z,8.07
2018-03-02T19:32:27.125Z,7.72
2018-03-02T19:34:54.588Z,9.13
2018-03-02T19:37:22.840Z,6.93
2018-03-02T19:42:42.423Z,9.95
2018-03-02T19:45:09.888Z,10.35
2018-03-02T19:47:37.361Z,11.00
2018-03-02T19:50:04.831Z,9.68
2018-03-02T19:52:33.068Z,10.00
2018-03-02T19:55:00.552Z,9.60
2018-03-02T19:57:28.045Z,10.52
2018-03-02T19:59:55.553Z,8.27
2018-03-02T20:02:23.008Z,11.45
2018-03-02T20:04:50.511Z,9.50
2018-03-02T20:07:18.004Z,10.85
2018-03-02T20:09:45.493Z,11.32
2018-03-02T20:12:12.980Z,9.07
2018-03-02T20:14:48.863Z,12.48
2018-03-02T20:17:16.334Z,12.60
2018-03-02T20:19:43.817Z,12.95
2018-03-02T20:22:12.062Z,11.82
2018-03-02T20:24:39.522Z,8.68
2018-03-02T20:27:07.017Z,11.65
2018-03-02T20:29:34.493Z,11.77
2018-03-02T20:32:01.964Z,11.38
2018-03-02T20:34:30.189Z,9.10
2018-03-02T20:37:14.829Z,12.88
2018-03-02T20:39:42.330Z,11.00
2018-03-02T20:42:09.873Z,11.32
2018-03-02T20:44:37.290Z,12.32
2018-03-02T20:47:04.800Z,9.63
2018-03-02T20:49:32.276Z,10.95
2018-03-02T20:51:59.747Z,10.32
2018-03-02T20:54:27.218Z,9.75
2018-03-02T20:56:54.699Z,10.20
2018-03-02T20:59:22.170Z,15.60
2018-03-02T21:01:49.641Z,14.13
2018-03-02T21:04:17.116Z,18.45
2018-03-02T21:06:44.581Z,16.60
2018-03-02T21:09:12.184Z,15.25
2018-03-02T21:11:39.871Z,11.20
2018-03-02T21:14:07.448Z,15.50
2018-03-02T21:16:35.036Z,10.73
2018-03-02T21:19:03.569Z,11.23
2018-03-02T21:21:31.073Z,10.65
2018-03-02T21:23:58.554Z,9.40
2018-03-02T21:26:27.057Z,9.30
2018-03-02T21:28:54.630Z,9.18
2018-03-02T21:31:22.175Z,9.60
2018-03-02T21:33:49.870Z,14.23
2018-03-02T21:36:17.677Z,13.75
2018-03-02T21:38:46.176Z,19.40
2018-03-02T21:41:13.652Z,14.23
2018-03-02T21:43:41.118Z,12.20
2018-03-02T21:46:08.575Z,14.38
2018-03-02T21:48:36.061Z,16.48
2018-03-02T21:51:03.595Z,16.52
2018-03-02T21:53:31.092Z,11.93
2018-03-02T21:55:58.595Z,10.57
2018-03-02T21:58:26.158Z,15.82
2018-03-02T22:00:53.667Z,12.23
2018-03-02T22:03:21.937Z,19.55
2018-03-02T22:05:49.477Z,10.80
2018-03-02T22:08:16.942Z,17.30
2018-03-02T22:10:44.573Z,15.52
2018-03-02T22:13:12.162Z,15.20
2018-03-02T22:15:39.700Z,16.87
2018-03-02T22:18:07.260Z,12.75
2018-03-02T22:20:34.838Z,14.18
2018-03-02T22:23:02.352Z,13.05
2018-03-02T22:25:30.570Z,12.15
2018-03-02T22:27:58.114Z,13.85
2018-03-02T22:30:26.411Z,8.93
2018-03-02T22:32:53.939Z,16.02
2018-03-02T22:35:21.409Z,11.10
2018-03-02T22:37:49.712Z,9.75
2018-03-02T22:40:17.263Z,12.13
2018-03-02T22:42:44.822Z,8.32
2018-03-02T22:45:12.414Z,13.73
2018-03-02T22:50:05.810Z,16.48
2018-03-02T22:52:34.151Z,14.82
2018-03-02T22:55:01.670Z,11.27
2018-03-02T22:57:29.180Z,12.18
2018-03-02T22:59:56.673Z,11.77
2018-03-02T23:02:24.955Z,12.13
2018-03-02T23:04:52.491Z,12.50
2018-03-02T23:07:20.019Z,13.25
2018-03-02T23:09:47.496Z,9.55
2018-03-02T23:12:14.997Z,12.43
2018-03-02T23:14:42.479Z,14.25
2018-03-02T23:17:09.927Z,11.55
2018-03-02T23:19:37.395Z,11.35
2018-03-02T23:22:04.868Z,12.95
2018-03-02T23:24:33.131Z,9.00
2018-03-02T23:27:00.580Z,8.65
2018-03-02T23:29:28.039Z,11.20
2018-03-02T23:31:55.491Z,10.52
2018-03-02T23:34:22.957Z,16.23
2018-03-02T23:36:50.413Z,14.48
2018-03-02T23:39:17.883Z,13.02
2018-03-02T23:41:45.345Z,16.20
2018-03-02T23:44:12.832Z,11.10
2018-03-02T23:46:40.275Z,9.82
2018-03-02T23:49:07.725Z,11.10
2018-03-02T23:51:35.188Z,11.73
2018-03-02T23:54:02.641Z,10.70
2018-03-02T23:56:30.100Z,9.57
2018-03-02T23:58:57.547Z,12.85
